Time;durP1;ratioP1;P1;durP2;ratioP2;P2;SDS_P1;SDS_P2;PMS_P1;PMS_P2;Temp;Humidity;BMP_temperature;BMP_pressure;BME280_temperature;BME280_humidity;BME280_pressure;Samples;Min_cycle;Max_cycle;Signal;HPM_P1;HPM_P2
2023/02/12 00:00:45;;;;;;;;;;;;;;;4.53;77.19;99904.25;5018433;28;19932;-60
2023/02/12 00:03:37;;;;;;;;;;;;;;;4.55;77.22;99901.31;5031273;28;19929;-61
2023/02/12 00:06:07;;;;;;;;;;;;;;;4.54;77.62;99899.69;5033052;28;19925;-59
2023/02/12 00:08:36;;;;;;;;;;;;;;;4.62;77.31;99894.00;5025999;28;19932;-59
2023/02/12 00:11:07;;;;;;;;;;;;;;;4.62;76.66;99894.81;5039299;28;20318;-59
2023/02/12 00:13:36;;;;;;;;;;;;;;;4.60;77.28;99902.28;5018736;28;19926;-58
2023/02/12 00:16:04;;;;;;;;;;;;;;;4.62;76.98;99897.50;5014350;28;20393;-60
2023/02/12 00:18:33;;;;;;;;;;;;;;;4.61;77.03;99898.56;5021562;28;19939;-58
2023/02/12 00:21:02;;;;;;;;;;;;;;;4.66;76.58;99905.97;5027008;28;19941;-58
2023/02/12 00:23:30;;;;;;;;;;;;;;;4.64;76.78;99898.13;5009429;28;20382;-58
2023/02/12 00:26:04;;;;;;;;;;;;;;;4.54;77.14;99881.66;5029345;28;20286;-58
2023/02/12 00:28:32;;;;;;;;;;;;;;;4.55;77.14;99893.25;5025925;28;19933;-58
2023/02/12 00:31:04;;;;;;;;;;;;;;;4.52;77.37;99894.50;5025407;28;20334;-59
2023/02/12 00:33:32;;;;;;;;;;;;;;;4.61;77.10;99906.63;5013980;28;19930;-58
2023/02/12 00:36:00;;;;;;;;;;;;;;;4.54;76.87;99897.81;5041505;28;20014;-59
2023/02/12 00:38:28;;;;;;;;;;;;;;;4.62;76.85;99905.56;5029737;28;19960;-59
2023/02/12 00:40:56;;;;;;;;;;;;;;;4.65;76.66;99909.72;5027145;28;20016;-59
2023/02/12 00:43:26;;;;;;;;;;;;;;;4.55;76.78;99899.44;5011511;28;19925;-59
2023/02/12 00:45:54;;;;;;;;;;;;;;;4.68;76.69;99898.47;5022959;28;20251;-59
2023/02/12 00:48:22;;;;;;;;;;;;;;;4.57;76.56;99902.72;5019658;28;20461;-58
2023/02/12 00:50:50;;;;;;;;;;;;;;;4.64;76.51;99903.50;5020084;28;19932;-59
2023/02/12 00:53:19;;;;;;;;;;;;;;;4.71;76.45;99909.63;5015833;28;19932;-63
2023/02/12 00:55:47;;;;;;;;;;;;;;;4.68;76.43;99904.69;5035669;28;19929;-61
2023/02/12 00:58:16;;;;;;;;;;;;;;;4.65;76.25;99905.13;5030661;28;20040;-60
2023/02/12 01:00:47;;;;;;;;;;;;;;;4.55;76.65;99899.44;5033775;28;19959;-58
2023/02/12 01:03:14;;;;;;;;;;;;;;;4.54;77.13;99910.44;5014327;28;20625;-60
2023/02/12 01:06:07;;;;;;;;;;;;;;;4.66;76.84;99912.16;5014199;28;19945;-59
2023/02/12 01:08:35;;;;;;;;;;;;;;;4.58;77.01;99907.09;5031447;28;20405;-60
2023/02/12 01:11:04;;;;;;;;;;;;;;;4.64;76.71;99903.50;5024510;28;19936;-58
2023/02/12 01:13:33;;;;;;;;;;;;;;;4.61;76.95;99913.88;5026323;28;19933;-58
2023/02/12 01:16:05;;;;;;;;;;;;;;;4.55;77.39;99907.53;5019760;28;19932;-58
2023/02/12 01:18:33;;;;;;;;;;;;;;;4.63;77.00;99904.53;5027634;28;19939;-59
2023/02/12 01:21:01;;;;;;;;;;;;;;;4.65;76.89;99904.31;5021717;28;20003;-60
2023/02/12 01:23:29;;;;;;;;;;;;;;;4.61;77.26;99895.84;5029784;28;19926;-60
2023/02/12 01:25:58;;;;;;;;;;;;;;;4.61;77.36;99898.56;5034574;28;20366;-58
2023/02/12 01:28:27;;;;;;;;;;;;;;;4.56;77.59;99906.47;5022261;28;20001;-59
2023/02/12 01:30:55;;;;;;;;;;;;;;;4.59;77.30;99900.66;5020927;28;19929;-59
2023/02/12 01:33:24;;;;;;;;;;;;;;;4.61;77.00;99895.84;5011100;28;19928;-58
2023/02/12 01:35:52;;;;;;;;;;;;;;;4.51;77.42;99900.94;5027554;28;19933;-58
2023/02/12 01:38:21;;;;;;;;;;;;;;;4.55;77.71;99910.22;5028715;28;19983;-59
2023/02/12 01:40:49;;;;;;;;;;;;;;;4.53;77.65;99900.69;5012139;28;20345;-60
2023/02/12 01:43:17;;;;;;;;;;;;;;;4.63;77.30;99896.44;5021922;28;19924;-59
2023/02/12 01:45:46;;;;;;;;;;;;;;;4.66;77.13;99896.00;5026918;28;19928;-58
2023/02/12 01:48:14;;;;;;;;;;;;;;;4.51;77.71;99889.34;5032578;28;19925;-59
2023/02/12 01:50:45;;;;;;;;;;;;;;;4.54;77.85;99888.91;5039443;28;19964;-59
2023/02/12 01:53:18;;;;;;;;;;;;;;;4.55;77.90;99891.38;5030744;28;19932;-63
2023/02/12 01:55:48;;;;;;;;;;;;;;;4.53;77.56;99885.41;5013142;28;19933;-59
2023/02/12 01:58:17;;;;;;;;;;;;;;;4.50;77.68;99899.28;5015450;28;20501;-58
2023/02/12 02:00:45;;;;;;;;;;;;;;;4.47;78.05;99899.72;5013881;28;19932;-59
2023/02/12 02:03:12;;;;;;;;;;;;;;;4.52;78.00;99891.81;4999513;28;19935;-58
2023/02/12 02:05:46;;;;;;;;;;;;;;;4.52;77.68;99902.56;5008634;28;19964;-58
2023/02/12 02:08:14;;;;;;;;;;;;;;;4.54;77.82;99903.19;5021227;28;19929;-58
2023/02/12 02:10:42;;;;;;;;;;;;;;;4.56;77.51;99901.09;5007420;28;20636;-58
2023/02/12 02:15:57;;;;;;;;;;;;;;;4.51;77.79;99892.84;5013429;28;19926;-57
2023/02/12 02:18:26;;;;;;;;;;;;;;;4.52;77.59;99899.88;5014618;28;19932;-66
2023/02/12 02:21:11;;;;;;;;;;;;;;;4.53;77.79;99895.31;5015093;28;19968;-60
2023/02/12 02:23:47;;;;;;;;;;;;;;;4.59;77.49;99899.84;5015083;28;19933;-59
2023/02/12 02:26:37;;;;;;;;;;;;;;;4.44;78.10;99897.50;5012192;28;19925;-58
2023/02/12 02:29:11;;;;;;;;;;;;;;;4.49;78.40;99897.66;4999493;28;19933;-59
2023/02/12 02:31:41;;;;;;;;;;;;;;;4.54;78.14;99897.00;4991188;28;20386;-59
2023/02/12 02:34:11;;;;;;;;;;;;;;;4.44;78.56;99892.13;5009465;28;20007;-59
2023/02/12 02:36:40;;;;;;;;;;;;;;;4.43;78.58;99895.84;5012898;28;20013;-60
2023/02/12 02:39:28;;;;;;;;;;;;;;;4.49;78.07;99900.34;5010544;28;20391;-58
2023/02/12 02:41:57;;;;;;;;;;;;;;;4.46;78.15;99900.78;5011788;28;19964;-58
2023/02/12 02:44:32;;;;;;;;;;;;;;;4.49;78.43;99900.34;5019206;28;19930;-59
2023/02/12 02:47:01;;;;;;;;;;;;;;;4.50;78.47;99890.41;5013069;28;19930;-59
2023/02/12 02:49:31;;;;;;;;;;;;;;;4.49;78.09;99905.72;5021710;28;19940;-64
2023/02/12 02:52:01;;;;;;;;;;;;;;;4.55;77.97;99904.84;5025660;28;19929;-69
2023/02/12 02:54:30;;;;;;;;;;;;;;;4.54;77.98;99903.19;5019987;28;19956;-67
2023/02/12 02:57:01;;;;;;;;;;;;;;;4.55;77.85;99907.53;5024260;28;20002;-58
2023/02/12 02:59:31;;;;;;;;;;;;;;;4.57;77.78;99899.22;5039404;28;19929;-62
2023/02/12 03:02:06;;;;;;;;;;;;;;;4.47;78.41;99910.50;5016686;28;20396;-59
2023/02/12 03:04:35;;;;;;;;;;;;;;;4.50;78.73;99904.69;5035128;28;19936;-59
2023/02/12 03:07:04;;;;;;;;;;;;;;;4.52;78.31;99905.25;5038086;28;19929;-61
2023/02/12 03:09:34;;;;;;;;;;;;;;;4.56;78.27;99903.78;5041656;28;19940;-60
2023/02/12 03:12:03;;;;;;;;;;;;;;;4.51;77.90;99916.25;5012869;28;19947;-58
2023/02/12 03:14:32;;;;;;;;;;;;;;;4.51;78.34;99909.00;5036223;28;19932;-59
2023/02/12 03:17:03;;;;;;;;;;;;;;;4.57;78.11;99913.50;5020586;28;20281;-59
2023/02/12 03:19:33;;;;;;;;;;;;;;;4.64;78.21;99908.06;5033861;28;19933;-59
2023/02/12 03:22:02;;;;;;;;;;;;;;;4.57;77.95;99913.50;5037776;28;20294;-59
2023/02/12 03:24:34;;;;;;;;;;;;;;;4.59;78.36;99921.38;5027384;28;19926;-59
2023/02/12 03:27:04;;;;;;;;;;;;;;;4.53;78.60;99922.22;5026974;28;19928;-59
2023/02/12 03:29:57;;;;;;;;;;;;;;;4.55;78.23;99910.22;5030548;28;20327;-59
2023/02/12 03:32:28;;;;;;;;;;;;;;;4.54;78.51;99918.53;5020197;28;20011;-59
2023/02/12 03:35:00;;;;;;;;;;;;;;;4.43;78.80;99925.47;5025343;28;19951;-59
2023/02/12 03:37:29;;;;;;;;;;;;;;;4.44;79.00;99929.78;5031037;28;19952;-59
2023/02/12 03:39:57;;;;;;;;;;;;;;;4.53;78.35;99927.63;5030849;28;19929;-59
2023/02/12 03:42:28;;;;;;;;;;;;;;;4.57;78.09;99935.03;5032730;28;19929;-60
2023/02/12 03:44:57;;;;;;;;;;;;;;;4.50;78.39;99928.91;5028136;28;19932;-61
2023/02/12 03:47:26;;;;;;;;;;;;;;;4.49;78.48;99929.97;5015981;28;19964;-60
2023/02/12 03:49:55;;;;;;;;;;;;;;;4.49;78.96;99934.50;5032455;28;19926;-61
2023/02/12 03:52:50;;;;;;;;;;;;;;;4.50;79.11;99939.66;5023658;28;20260;-58
2023/02/12 03:55:24;;;;;;;;;;;;;;;4.43;79.09;99941.59;5019658;28;19925;-59
2023/02/12 03:57:53;;;;;;;;;;;;;;;4.43;79.22;99947.00;5005310;28;19977;-58
2023/02/12 04:00:22;;;;;;;;;;;;;;;4.47;79.09;99946.34;4999291;28;19988;-60
2023/02/12 04:02:51;;;;;;;;;;;;;;;4.37;80.02;99946.00;5007950;28;19933;-61
2023/02/12 04:05:19;;;;;;;;;;;;;;;4.47;79.53;99940.09;4995411;28;19932;-60
2023/02/12 04:07:47;;;;;;;;;;;;;;;4.46;79.99;99943.84;5011797;28;20011;-58
2023/02/12 04:10:17;;;;;;;;;;;;;;;4.47;79.95;99945.47;4994092;28;19988;-59
2023/02/12 04:12:47;;;;;;;;;;;;;;;4.46;79.95;99939.28;5000593;28;19929;-59
2023/02/12 04:15:18;;;;;;;;;;;;;;;4.40;80.07;99940.16;5009346;28;19933;-63
2023/02/12 04:17:49;;;;;;;;;;;;;;;4.43;79.84;99947.81;5008292;28;19936;-59
2023/02/12 04:20:22;;;;;;;;;;;;;;;4.39;80.19;99943.09;5008936;28;20052;-59
2023/02/12 04:25:51;;;;;;;;;;;;;;;4.55;79.77;99947.91;5012304;28;19960;-58
2023/02/12 04:28:22;;;;;;;;;;;;;;;4.56;79.52;99944.16;5012027;28;19925;-59
2023/02/12 04:30:53;;;;;;;;;;;;;;;4.44;79.84;99952.16;5004620;28;20298;-60
2023/02/12 04:33:22;;;;;;;;;;;;;;;4.50;80.14;99950.44;4990008;28;19990;-59
2023/02/12 04:35:51;;;;;;;;;;;;;;;4.44;80.42;99951.31;5011440;28;19932;-62
2023/02/12 04:38:23;;;;;;;;;;;;;;;4.39;80.60;99953.84;5012079;28;20012;-59
2023/02/12 04:40:52;;;;;;;;;;;;;;;4.44;80.64;99960.22;5012313;28;19933;-59
2023/02/12 04:43:28;;;;;;;;;;;;;;;4.39;81.00;99959.25;5018922;28;19933;-63
2023/02/12 04:45:56;;;;;;;;;;;;;;;4.39;80.61;99959.25;5010610;28;19930;-61
2023/02/12 04:48:25;;;;;;;;;;;;;;;4.43;80.68;99955.88;5016686;28;19925;-59
2023/02/12 04:50:53;;;;;;;;;;;;;;;4.48;80.83;99966.00;5011434;28;19932;-58
2023/02/12 04:53:21;;;;;;;;;;;;;;;4.43;80.72;99965.84;5008073;28;20271;-60
2023/02/12 04:55:49;;;;;;;;;;;;;;;4.45;80.98;99969.13;5014773;28;20254;-60
2023/02/12 04:58:19;;;;;;;;;;;;;;;4.40;81.32;99959.00;5036076;28;19991;-59
2023/02/12 05:00:47;;;;;;;;;;;;;;;4.38;81.54;99960.28;5030055;28;19932;-62
2023/02/12 05:03:15;;;;;;;;;;;;;;;4.36;81.61;99962.34;5019474;28;19925;-60
2023/02/12 05:05:43;;;;;;;;;;;;;;;4.37;82.04;99959.47;5033685;28;20393;-60
2023/02/12 05:08:11;;;;;;;;;;;;;;;4.33;81.96;99962.81;5029881;28;19925;-60
2023/02/12 05:10:39;;;;;;;;;;;;;;;4.37;82.77;99966.72;5041162;28;19965;-60
2023/02/12 05:13:07;;;;;;;;;;;;;;;4.44;81.91;99967.47;5009918;28;19976;-60
2023/02/12 05:15:38;;;;;;;;;;;;;;;4.46;82.36;99960.00;5025452;28;19925;-59
2023/02/12 05:18:06;;;;;;;;;;;;;;;4.44;82.61;99964.78;5041661;28;19925;-59
2023/02/12 05:20:36;;;;;;;;;;;;;;;4.32;82.39;99955.78;5029330;28;19925;-58
2023/02/12 05:23:04;;;;;;;;;;;;;;;4.38;82.55;99962.97;5030998;28;20012;-59
2023/02/12 05:25:32;;;;;;;;;;;;;;;4.38;82.70;99969.19;5038039;28;20381;-59
2023/02/12 05:28:00;;;;;;;;;;;;;;;4.42;83.39;99964.16;5005215;28;20416;-65
2023/02/12 05:30:30;;;;;;;;;;;;;;;4.32;83.39;99964.69;5028297;28;19971;-60
2023/02/12 05:32:59;;;;;;;;;;;;;;;4.24;83.77;99962.25;5033148;28;20000;-59
2023/02/12 05:35:27;;;;;;;;;;;;;;;4.38;84.08;99968.34;5030721;28;20020;-59
2023/02/12 05:37:55;;;;;;;;;;;;;;;4.50;83.15;99976.53;5041293;28;19928;-60
2023/02/12 05:40:24;;;;;;;;;;;;;;;4.47;83.49;99978.63;5038116;28;19932;-60
2023/02/12 05:42:54;;;;;;;;;;;;;;;4.43;83.82;99971.22;5021527;28;19925;-61
2023/02/12 05:45:26;;;;;;;;;;;;;;;4.49;83.28;99973.03;5026329;28;20401;-63
2023/02/12 05:47:54;;;;;;;;;;;;;;;4.53;82.84;99981.44;5013207;28;19925;-58
2023/02/12 05:50:30;;;;;;;;;;;;;;;4.56;83.00;99983.72;5032427;28;19970;-65
2023/02/12 05:53:22;;;;;;;;;;;;;;;4.57;82.73;99983.47;5026355;28;19932;-62
2023/02/12 05:55:50;;;;;;;;;;;;;;;4.59;82.38;99981.41;5033416;28;20392;-59
2023/02/12 05:58:19;;;;;;;;;;;;;;;4.43;83.01;99984.66;5030434;28;19932;-59
2023/02/12 06:00:49;;;;;;;;;;;;;;;4.42;83.20;99985.69;5019005;28;20821;-59
2023/02/12 06:03:16;;;;;;;;;;;;;;;4.38;83.18;99989.88;5017456;28;19940;-61
2023/02/12 06:05:51;;;;;;;;;;;;;;;4.27;83.50;99990.59;5034701;28;19925;-59
2023/02/12 06:08:19;;;;;;;;;;;;;;;4.31;83.05;99989.09;5021598;28;20347;-66
2023/02/12 06:10:47;;;;;;;;;;;;;;;4.40;83.52;99994.00;5027768;28;19936;-66
2023/02/12 06:16:07;;;;;;;;;;;;;;;4.32;83.32;99991.59;5038517;28;19974;-59
2023/02/12 06:18:35;;;;;;;;;;;;;;;4.40;83.40;99993.19;5035929;28;19943;-59
2023/02/12 06:21:07;;;;;;;;;;;;;;;4.20;83.66;99988.75;5024462;28;19993;-60
2023/02/12 06:23:35;;;;;;;;;;;;;;;4.31;83.72;99995.31;5027523;28;19947;-60
2023/02/12 06:26:03;;;;;;;;;;;;;;;4.23;84.11;99987.53;5033432;28;19943;-59
2023/02/12 06:28:31;;;;;;;;;;;;;;;4.28;83.84;99989.56;5028626;28;19950;-62
2023/02/12 06:30:59;;;;;;;;;;;;;;;4.35;83.73;99995.69;5024045;28;20001;-59
2023/02/12 06:33:27;;;;;;;;;;;;;;;4.32;83.63;99990.78;5030587;28;19944;-59
2023/02/12 06:35:55;;;;;;;;;;;;;;;4.34;83.42;99999.44;5030759;28;19959;-59
2023/02/12 06:38:27;;;;;;;;;;;;;;;4.30;83.60;99998.22;4998236;28;19944;-58
2023/02/12 06:41:20;;;;;;;;;;;;;;;4.32;83.46;100006.91;5014936;28;19951;-59
2023/02/12 06:43:48;;;;;;;;;;;;;;;4.38;83.27;100014.94;5031534;28;20252;-59
2023/02/12 06:46:16;;;;;;;;;;;;;;;4.36;83.23;100013.47;5000651;28;20321;-59
2023/02/12 06:48:44;;;;;;;;;;;;;;;4.31;83.69;100024.06;5027512;28;20320;-59
2023/02/12 06:51:13;;;;;;;;;;;;;;;4.28;83.46;100027.22;5015380;28;20020;-59
2023/02/12 06:53:42;;;;;;;;;;;;;;;4.37;83.40;100032.13;5031592;28;19944;-60
2023/02/12 06:56:11;;;;;;;;;;;;;;;4.39;83.15;100029.22;5030147;28;19955;-62
2023/02/12 06:58:40;;;;;;;;;;;;;;;4.27;83.58;100031.78;5042036;28;19939;-60
2023/02/12 07:01:11;;;;;;;;;;;;;;;4.40;83.45;100030.84;5034816;28;20327;-59
2023/02/12 07:03:39;;;;;;;;;;;;;;;4.44;82.75;100035.56;5037472;28;19946;-59
2023/02/12 07:06:08;;;;;;;;;;;;;;;4.46;82.64;100032.66;5029614;28;19946;-61
2023/02/12 07:08:36;;;;;;;;;;;;;;;4.47;82.65;100042.38;5015021;28;19963;-58
2023/02/12 07:11:05;;;;;;;;;;;;;;;4.46;83.03;100046.13;5020932;28;19978;-59
2023/02/12 07:13:34;;;;;;;;;;;;;;;4.52;81.96;100049.78;5026119;28;19948;-59
2023/02/12 07:16:05;;;;;;;;;;;;;;;4.45;82.38;100047.16;5010974;28;20628;-59
2023/02/12 07:18:33;;;;;;;;;;;;;;;4.35;82.32;100049.53;5027971;28;19943;-59
2023/02/12 07:21:03;;;;;;;;;;;;;;;4.37;82.36;100050.16;5012707;28;20042;-60
2023/02/12 07:23:31;;;;;;;;;;;;;;;4.36;82.48;100045.78;5029461;28;19993;-62
2023/02/12 07:25:59;;;;;;;;;;;;;;;4.46;82.21;100056.88;5022411;28;20041;-59
2023/02/12 07:28:32;;;;;;;;;;;;;;;4.42;82.24;100058.34;5023705;28;19939;-59
2023/02/12 07:31:01;;;;;;;;;;;;;;;4.49;82.37;100050.25;5015387;28;19990;-59
2023/02/12 07:33:54;;;;;;;;;;;;;;;4.51;81.74;100057.06;5021364;28;19944;-66
2023/02/12 07:36:23;;;;;;;;;;;;;;;4.38;82.22;100060.69;5029335;28;19931;-60
2023/02/12 07:38:51;;;;;;;;;;;;;;;4.55;81.99;100060.13;5029808;28;20313;-60
2023/02/12 07:41:20;;;;;;;;;;;;;;;4.62;81.58;100056.34;5017231;28;19952;-61
2023/02/12 07:43:53;;;;;;;;;;;;;;;4.66;81.33;100052.16;5026233;28;19951;-59
2023/02/12 07:46:25;;;;;;;;;;;;;;;4.71;81.31;100059.59;5023222;28;20243;-60
2023/02/12 07:48:52;;;;;;;;;;;;;;;4.79;80.61;100055.78;5022555;28;20398;-59
2023/02/12 07:51:21;;;;;;;;;;;;;;;4.82;80.66;100061.56;5023078;28;20328;-58
2023/02/12 07:53:49;;;;;;;;;;;;;;;4.92;80.15;100053.81;5033585;28;20392;-58
2023/02/12 07:56:18;;;;;;;;;;;;;;;4.80;80.42;100058.28;5034503;28;19932;-59
2023/02/12 07:58:47;;;;;;;;;;;;;;;4.91;79.77;100064.81;5037622;28;19932;-60
2023/02/12 08:01:19;;;;;;;;;;;;;;;4.96;80.27;100060.41;5022134;28;19975;-59
2023/02/12 08:03:47;;;;;;;;;;;;;;;5.04;79.85;100061.97;5013754;28;19943;-58
2023/02/12 08:06:16;;;;;;;;;;;;;;;5.14;79.49;100064.97;5031799;28;20012;-59
2023/02/12 08:08:43;;;;;;;;;;;;;;;5.21;79.23;100076.50;5037277;28;19932;-59
2023/02/12 08:11:12;;;;;;;;;;;;;;;5.17;79.34;100074.50;5040045;28;19924;-59
2023/02/12 08:13:41;;;;;;;;;;;;;;;5.12;80.01;100075.16;5034912;28;19971;-58
2023/02/12 08:16:11;;;;;;;;;;;;;;;5.19;79.71;100075.09;5031667;28;19931;-59
2023/02/12 08:18:43;;;;;;;;;;;;;;;5.39;79.07;100077.59;5031416;28;19933;-58
2023/02/12 08:21:12;;;;;;;;;;;;;;;5.38;78.73;100079.47;5036026;28;19972;-59
2023/02/12 08:23:40;;;;;;;;;;;;;;;5.45;78.38;100077.50;5016076;28;19932;-60
2023/02/12 08:26:09;;;;;;;;;;;;;;;5.55;78.17;100078.84;5034762;28;19932;-58
2023/02/12 08:28:37;;;;;;;;;;;;;;;5.69;78.03;100075.75;5017532;28;19933;-58
2023/02/12 08:31:06;;;;;;;;;;;;;;;5.72;77.90;100072.63;5020796;28;19939;-58
2023/02/12 08:33:34;;;;;;;;;;;;;;;5.83;76.89;100067.50;5010557;28;19955;-59
2023/02/12 08:36:05;;;;;;;;;;;;;;;5.87;76.50;100063.31;5027243;28;19970;-59
2023/02/12 08:38:33;;;;;;;;;;;;;;;6.11;77.03;100062.38;5029570;28;19928;-61
2023/02/12 08:41:02;;;;;;;;;;;;;;;6.27;76.01;100058.19;5006941;28;19933;-59
2023/02/12 08:43:30;;;;;;;;;;;;;;;6.42;75.39;100057.78;5022663;28;19948;-60
2023/02/12 08:46:02;;;;;;;;;;;;;;;6.37;75.06;100049.53;5021502;28;20301;-58
2023/02/12 08:48:29;;;;;;;;;;;;;;;6.55;74.59;100052.16;5023094;28;19936;-59
2023/02/12 08:51:04;;;;;;;;;;;;;;;6.77;73.78;100053.25;5023771;28;20038;-58
2023/02/12 08:53:32;;;;;;;;;;;;;;;6.82;73.59;100056.06;5023555;28;19942;-58
2023/02/12 08:56:00;;;;;;;;;;;;;;;6.67;74.59;100057.59;5026268;28;19955;-60
2023/02/12 08:58:28;;;;;;;;;;;;;;;6.75;74.19;100055.34;5023392;28;19953;-59
2023/02/12 09:00:56;;;;;;;;;;;;;;;6.83;73.85;100056.91;5002268;28;20336;-59
2023/02/12 09:03:25;;;;;;;;;;;;;;;6.52;74.46;100052.63;5027200;28;19950;-58
2023/02/12 09:05:52;;;;;;;;;;;;;;;6.67;74.11;100060.28;5032292;28;19932;-58
2023/02/12 09:08:22;;;;;;;;;;;;;;;6.80;73.20;100052.78;5027131;28;20014;-57
2023/02/12 09:10:50;;;;;;;;;;;;;;;6.78;73.73;100059.47;5021876;28;19944;-58
2023/02/12 09:13:43;;;;;;;;;;;;;;;6.86;73.73;100058.28;5025241;28;20031;-58
2023/02/12 09:16:11;;;;;;;;;;;;;;;6.93;73.04;100064.44;5019106;28;19951;-60
2023/02/12 09:18:39;;;;;;;;;;;;;;;6.87;73.73;100063.50;5028796;28;19944;-59
2023/02/12 09:21:32;;;;;;;;;;;;;;;6.77;73.55;100069.47;5024122;28;19952;-59
2023/02/12 09:24:06;;;;;;;;;;;;;;;6.63;74.14;100069.91;5030791;28;19936;-59
2023/02/12 09:26:35;;;;;;;;;;;;;;;6.43;75.19;100072.91;5024154;28;20406;-58
2023/02/12 09:29:03;;;;;;;;;;;;;;;6.39;75.32;100074.41;5019489;28;19963;-58
2023/02/12 09:31:31;;;;;;;;;;;;;;;6.20;76.36;100063.69;5022702;28;19944;-60
2023/02/12 09:34:00;;;;;;;;;;;;;;;6.19;76.53;100072.03;5031202;28;19929;-61
2023/02/12 09:36:28;;;;;;;;;;;;;;;6.29;76.62;100073.13;5030706;28;19926;-58
2023/02/12 09:38:59;;;;;;;;;;;;;;;6.38;76.27;100076.31;5033107;28;19986;-59
2023/02/12 09:41:54;;;;;;;;;;;;;;;6.53;75.96;100081.28;5025618;28;19929;-58
2023/02/12 09:44:25;;;;;;;;;;;;;;;6.68;75.10;100075.44;5037251;28;20044;-58
2023/02/12 09:46:55;;;;;;;;;;;;;;;6.60;75.51;100079.28;5027734;28;19925;-58
2023/02/12 09:49:26;;;;;;;;;;;;;;;6.57;75.89;100074.38;5026544;28;20391;-59
2023/02/12 09:52:25;;;;;;;;;;;;;;;6.39;76.23;100074.41;5025441;28;19936;-60
2023/02/12 09:58:11;;;;;;;;;;;;;;;6.44;76.56;100077.25;5009085;28;19947;-58
2023/02/12 10:00:41;;;;;;;;;;;;;;;6.34;77.05;100082.38;5005429;28;19967;-59
2023/02/12 10:03:12;;;;;;;;;;;;;;;6.32;76.42;100081.81;5005289;28;19990;-59
2023/02/12 10:05:41;;;;;;;;;;;;;;;6.39;76.39;100082.53;5007628;28;19990;-59
2023/02/12 10:08:24;;;;;;;;;;;;;;;6.33;76.66;100083.44;5006573;28;20551;-62
2023/02/12 10:11:17;;;;;;;;;;;;;;;6.32;77.03;100089.91;4974682;28;20309;-58
2023/02/12 10:13:46;;;;;;;;;;;;;;;6.24;77.25;100097.28;5010073;28;19988;-58
2023/02/12 10:16:17;;;;;;;;;;;;;;;6.24;77.33;100083.78;5005403;28;19967;-59
2023/02/12 10:18:51;;;;;;;;;;;;;;;6.39;76.70;100088.78;5003359;28;20509;-58
2023/02/12 10:24:21;;;;;;;;;;;;;;;6.59;76.28;100083.03;5001126;28;20020;-59
2023/02/12 10:26:50;;;;;;;;;;;;;;;6.75;75.67;100082.38;5015259;28;19978;-59
2023/02/12 10:29:19;;;;;;;;;;;;;;;6.76;75.38;100086.72;4991312;28;19940;-58
2023/02/12 10:31:53;;;;;;;;;;;;;;;6.74;75.74;100088.81;5005536;28;19967;-58
2023/02/12 10:34:25;;;;;;;;;;;;;;;6.74;75.81;100080.72;5011286;28;19963;-59
2023/02/12 10:36:54;;;;;;;;;;;;;;;6.79;75.42;100083.56;5008693;28;19929;-59
2023/02/12 10:39:23;;;;;;;;;;;;;;;6.89;74.89;100076.75;5017019;28;19943;-64
2023/02/12 10:41:53;;;;;;;;;;;;;;;6.74;75.29;100086.13;5007226;28;19933;-59
2023/02/12 10:44:21;;;;;;;;;;;;;;;6.75;75.70;100078.84;5007270;28;20596;-58
2023/02/12 10:46:50;;;;;;;;;;;;;;;6.80;75.74;100078.97;5000917;28;20421;-59
2023/02/12 10:49:18;;;;;;;;;;;;;;;6.96;75.21;100074.75;4992735;28;19925;-59
2023/02/12 10:52:04;;;;;;;;;;;;;;;6.98;75.44;100078.06;5006268;28;20332;-60
2023/02/12 10:54:39;;;;;;;;;;;;;;;7.00;75.04;100075.94;5006017;28;19929;-58
2023/02/12 10:57:10;;;;;;;;;;;;;;;7.09;74.76;100077.22;5025936;28;20283;-63
2023/02/12 10:59:38;;;;;;;;;;;;;;;7.10;74.48;100081.56;5030929;28;20127;-59
2023/02/12 11:02:16;;;;;;;;;;;;;;;6.86;74.83;100077.22;5026342;28;19932;-58
2023/02/12 11:04:46;;;;;;;;;;;;;;;6.66;76.22;100072.97;5031805;28;19925;-59
2023/02/12 11:07:14;;;;;;;;;;;;;;;6.66;76.27;100072.13;5020724;28;20283;-58
2023/02/12 11:09:45;;;;;;;;;;;;;;;6.60;76.55;100079.28;5032255;28;19936;-59
2023/02/12 11:12:20;;;;;;;;;;;;;;;6.67;77.09;100076.50;5014051;28;19964;-58
2023/02/12 11:14:49;;;;;;;;;;;;;;;6.64;76.60;100069.66;5028275;28;19936;-58
2023/02/12 11:17:23;;;;;;;;;;;;;;;6.56;76.95;100072.72;5008157;28;20298;-58
2023/02/12 11:20:02;;;;;;;;;;;;;;;6.57;77.11;100072.47;5028080;28;20667;-57
2023/02/12 11:22:55;;;;;;;;;;;;;;;6.64;77.04;100074.25;5028372;28;20382;-62
2023/02/12 11:25:25;;;;;;;;;;;;;;;6.77;76.53;100069.47;5025309;28;19975;-59
2023/02/12 11:27:58;;;;;;;;;;;;;;;6.65;76.42;100071.31;5025448;28;20426;-57
2023/02/12 11:30:28;;;;;;;;;;;;;;;6.74;76.11;100069.09;5008411;28;19925;-58
2023/02/12 11:33:12;;;;;;;;;;;;;;;6.91;75.73;100070.03;5032127;28;20016;-58
2023/02/12 11:35:46;;;;;;;;;;;;;;;6.99;75.33;100074.28;5039117;28;20305;-58
2023/02/12 11:38:15;;;;;;;;;;;;;;;7.08;75.23;100076.41;5027899;28;20691;-60
2023/02/12 11:41:09;;;;;;;;;;;;;;;7.10;74.24;100078.88;5020305;28;19939;-59
2023/02/12 11:43:38;;;;;;;;;;;;;;;6.93;75.23;100069.84;5023892;28;19952;-58
2023/02/12 11:46:07;;;;;;;;;;;;;;;6.95;75.00;100073.94;5015788;28;21297;-61
2023/02/12 11:48:36;;;;;;;;;;;;;;;6.91;75.00;100069.22;5023092;28;20147;-60
2023/02/12 11:51:09;;;;;;;;;;;;;;;6.97;75.12;100076.38;5030045;28;19933;-58
2023/02/12 11:53:39;;;;;;;;;;;;;;;6.97;75.41;100068.28;5028947;28;20298;-59
2023/02/12 11:56:07;;;;;;;;;;;;;;;6.90;75.67;100063.00;5025228;28;21107;-57
2023/02/12 11:58:35;;;;;;;;;;;;;;;7.01;75.52;100064.06;4987335;28;20413;-58
2023/02/12 12:01:11;;;;;;;;;;;;;;;6.97;74.97;100062.88;5002237;28;19996;-58
2023/02/12 12:03:40;;;;;;;;;;;;;;;6.83;75.20;100062.31;4994902;28;19960;-58
2023/02/12 12:06:19;;;;;;;;;;;;;;;6.92;75.47;100060.88;5001998;28;19940;-58
2023/02/12 12:08:48;;;;;;;;;;;;;;;6.93;75.75;100059.84;5005194;28;20031;-58
2023/02/12 12:11:16;;;;;;;;;;;;;;;6.93;75.19;100056.31;5002676;28;19940;-59
2023/02/12 12:13:46;;;;;;;;;;;;;;;6.97;75.40;100062.88;5000729;28;19948;-59
2023/02/12 12:21:55;;;;;;;;;;;;;;;7.23;74.86;100051.59;5006565;28;19951;-59
2023/02/12 12:24:24;;;;;;;;;;;;;;;7.31;74.38;100053.94;5006644;28;19955;-60
2023/02/12 12:26:59;;;;;;;;;;;;;;;7.37;73.95;100057.56;5020246;28;19948;-59
2023/02/12 12:29:30;;;;;;;;;;;;;;;7.40;73.93;100056.25;5007163;28;19952;-61
2023/02/12 12:32:23;;;;;;;;;;;;;;;7.59;72.60;100055.06;5003276;28;20118;-59
2023/02/12 12:40:42;;;;;;;;;;;;;;;7.60;72.27;100062.91;4982790;28;19991;-59
2023/02/12 12:43:11;;;;;;;;;;;;;;;7.59;72.58;100055.88;5003387;28;19968;-59
2023/02/12 12:45:50;;;;;;;;;;;;;;;7.55;72.29;100056.59;4999272;28;20337;-59
2023/02/12 12:48:44;;;;;;;;;;;;;;;7.61;72.13;100052.91;5002292;28;19982;-64
2023/02/12 12:51:16;;;;;;;;;;;;;;;7.51;72.65;100050.00;5003655;28;20500;-58
2023/02/12 12:53:53;;;;;;;;;;;;;;;7.53;72.38;100045.19;5008390;28;20303;-61
2023/02/12 12:56:37;;;;;;;;;;;;;;;7.66;72.24;100044.09;5004462;28;20404;-59
2023/02/12 12:59:17;;;;;;;;;;;;;;;7.79;72.10;100036.53;5025124;28;19943;-59
2023/02/12 13:02:11;;;;;;;;;;;;;;;7.74;71.73;100041.84;5016871;28;19951;-63
2023/02/12 13:04:44;;;;;;;;;;;;;;;7.81;71.28;100036.28;5024203;28;19956;-59
2023/02/12 13:07:13;;;;;;;;;;;;;;;7.80;70.85;100035.47;5025845;28;19951;-59
2023/02/12 13:09:47;;;;;;;;;;;;;;;7.72;71.07;100038.53;5030884;28;19946;-59
2023/02/12 13:12:30;;;;;;;;;;;;;;;7.57;72.23;100030.97;5030066;28;19940;-60
2023/02/12 13:15:00;;;;;;;;;;;;;;;7.75;72.25;100034.53;5011801;28;19944;-59
2023/02/12 13:17:30;;;;;;;;;;;;;;;7.78;72.34;100040.31;5019174;28;20015;-64
2023/02/12 13:20:23;;;;;;;;;;;;;;;7.69;72.04;100038.22;5023435;28;19986;-59
2023/02/12 13:22:52;;;;;;;;;;;;;;;7.67;72.44;100035.75;5024453;28;19956;-60
2023/02/12 13:25:24;;;;;;;;;;;;;;;7.71;72.53;100030.66;5029188;28;19947;-58
2023/02/12 13:27:52;;;;;;;;;;;;;;;7.77;72.16;100030.50;5027798;28;19966;-59
2023/02/12 13:30:21;;;;;;;;;;;;;;;7.71;72.28;100039.59;5023634;28;19946;-59
2023/02/12 13:32:50;;;;;;;;;;;;;;;7.75;72.16;100038.06;5038020;28;19995;-58
2023/02/12 13:35:19;;;;;;;;;;;;;;;7.72;72.08;100038.53;5026083;28;19943;-58
2023/02/12 13:37:54;;;;;;;;;;;;;;;7.83;71.60;100043.09;5030441;28;19947;-58
2023/02/12 13:40:24;;;;;;;;;;;;;;;7.58;72.16;100039.88;5033951;28;19943;-60